Ponce de Leon, Florida
Current Conditions -  °F | °C
As of 9:35 PM on Friday 24 Oct 2014 (Local Time) from K54J Reporting Station
Clear Clear  
Wind Chill: 56°   Ceiling: Unl
Heat Index: 56°   Visibility: 10mi
Dew Point: 49°   Wind: 5mph
Humidity: 78%   Direction: 300°WNW
Pressure: 30.05"   Gusts: NA
Location:  30.72°N, 85.94°W
Report Text: K54J 250235Z AUTO 30004KT 10SM CLR 13/10 A3005 RMK AO2 T01330095
Loading
Personal Weather Stations






























Interactive Weather Map
Tropical Storm Tracking
New forecast layout! Learn more

10-Day Weather Forecast

Advertisements
Track Severe Weather on mobile